createdAt,value
2019-02-14T00:01:43.114Z,2.68
2019-02-14T00:04:12.344Z,2.60
2019-02-14T00:06:41.509Z,2.67
2019-02-14T00:09:10.732Z,2.72
2019-02-14T00:11:39.980Z,2.70
2019-02-14T00:14:09.204Z,2.53
2019-02-14T00:16:38.409Z,2.52
2019-02-14T00:19:08.105Z,2.39
2019-02-14T00:21:37.266Z,2.55
2019-02-14T00:24:06.416Z,2.62
2019-02-14T00:26:35.653Z,2.64
2019-02-14T00:29:04.947Z,2.44
2019-02-14T00:31:34.140Z,2.59
2019-02-14T00:34:03.344Z,2.73
2019-02-14T00:36:32.536Z,2.75
2019-02-14T00:39:01.693Z,2.75
2019-02-14T00:41:30.910Z,2.81
2019-02-14T00:44:00.223Z,2.81
2019-02-14T00:46:29.436Z,2.76
2019-02-14T00:48:58.803Z,2.78
2019-02-14T00:51:28.032Z,2.65
2019-02-14T00:53:57.356Z,2.60
2019-02-14T00:56:26.627Z,2.65
2019-02-14T00:58:55.966Z,2.59
2019-02-14T01:01:25.157Z,2.44
2019-02-14T01:03:54.399Z,2.49
2019-02-14T01:06:23.601Z,2.61
2019-02-14T01:08:52.816Z,2.52
2019-02-14T01:11:22.052Z,2.47
2019-02-14T01:13:51.241Z,2.35
2019-02-14T01:16:20.407Z,2.27
2019-02-14T01:18:49.698Z,2.22
2019-02-14T01:21:19.019Z,2.18
2019-02-14T01:23:48.280Z,2.14
2019-02-14T01:26:17.461Z,2.12
2019-02-14T01:28:46.683Z,2.10
2019-02-14T01:31:16.032Z,2.11
2019-02-14T01:33:45.318Z,2.11
2019-02-14T01:36:14.977Z,2.15
2019-02-14T01:38:44.172Z,2.29
2019-02-14T01:41:13.353Z,2.49
2019-02-14T01:43:42.552Z,2.59
2019-02-14T01:46:11.835Z,2.65
2019-02-14T01:48:41.057Z,2.68
2019-02-14T01:51:10.223Z,2.71
2019-02-14T01:53:39.385Z,2.67
2019-02-14T01:56:08.582Z,2.67
2019-02-14T01:58:37.771Z,2.64
2019-02-14T02:01:06.947Z,2.70
2019-02-14T02:03:36.168Z,2.73
2019-02-14T02:06:05.328Z,2.69
2019-02-14T02:08:34.484Z,2.75
2019-02-14T02:11:03.946Z,2.78
2019-02-14T02:13:33.287Z,2.81
2019-02-14T02:16:02.488Z,2.77
2019-02-14T02:18:31.813Z,2.74
2019-02-14T02:21:00.971Z,2.77
2019-02-14T02:23:30.167Z,2.80
2019-02-14T02:25:59.294Z,2.78
2019-02-14T02:28:28.484Z,2.78
2019-02-14T02:30:57.669Z,2.76
2019-02-14T02:33:26.840Z,2.73
2019-02-14T02:36:00.401Z,2.72
2019-02-14T02:38:26.956Z,2.64
2019-02-14T02:40:56.130Z,2.49
2019-02-14T02:43:25.349Z,2.48
2019-02-14T02:45:54.537Z,2.51
2019-02-14T02:48:23.682Z,2.46
2019-02-14T02:50:52.937Z,2.50
2019-02-14T02:53:22.124Z,2.45
2019-02-14T02:55:51.322Z,2.45
2019-02-14T02:58:20.826Z,2.38
2019-02-14T03:00:49.984Z,2.32
2019-02-14T03:03:19.191Z,2.33
2019-02-14T03:05:48.429Z,2.30
2019-02-14T03:08:17.620Z,2.19
2019-02-14T03:10:46.779Z,2.04
2019-02-14T03:13:16.162Z,2.02
2019-02-14T03:15:45.373Z,1.96
2019-02-14T03:18:14.583Z,1.87
2019-02-14T03:20:43.743Z,1.85
2019-02-14T03:23:12.900Z,1.76
2019-02-14T03:25:42.082Z,1.79
2019-02-14T03:28:11.240Z,1.89
2019-02-14T03:30:40.460Z,1.86
2019-02-14T03:33:09.658Z,1.96
2019-02-14T03:35:38.859Z,1.81
2019-02-14T03:38:08.013Z,1.71
2019-02-14T03:40:37.279Z,1.70
2019-02-14T03:43:06.475Z,1.76
2019-02-14T03:45:35.663Z,1.81
2019-02-14T03:48:04.862Z,1.89
2019-02-14T03:50:34.173Z,1.71
2019-02-14T03:53:03.323Z,1.50
2019-02-14T03:55:32.587Z,1.31
2019-02-14T03:58:02.961Z,1.35
2019-02-14T04:00:32.116Z,1.40
2019-02-14T04:03:01.265Z,1.64
2019-02-14T04:05:30.558Z,1.56
2019-02-14T04:07:59.860Z,1.44
2019-02-14T04:10:29.066Z,1.55
2019-02-14T04:12:58.284Z,1.71
2019-02-14T04:15:27.468Z,1.82
2019-02-14T04:17:56.715Z,1.80
2019-02-14T04:20:26.140Z,1.70
2019-02-14T04:22:55.331Z,1.51
2019-02-14T04:25:24.477Z,1.42
2019-02-14T04:27:53.945Z,1.49
2019-02-14T04:30:27.950Z,1.50
2019-02-14T04:32:57.320Z,1.36
2019-02-14T04:35:26.515Z,1.17
2019-02-14T04:37:55.703Z,0.95
2019-02-14T04:40:33.240Z,0.90
2019-02-14T04:42:56.121Z,0.89
2019-02-14T04:45:25.471Z,0.85
2019-02-14T04:47:54.666Z,0.74
2019-02-14T04:50:23.867Z,0.75
2019-02-14T04:52:53.054Z,0.61
2019-02-14T04:55:22.197Z,0.50
2019-02-14T04:57:51.446Z,0.50
2019-02-14T05:00:22.774Z,0.37
2019-02-14T05:02:51.948Z,0.39
2019-02-14T05:05:21.097Z,0.36
2019-02-14T05:07:50.547Z,0.33
2019-02-14T05:10:20.660Z,0.28
2019-02-14T05:12:49.805Z,0.21
2019-02-14T05:15:18.986Z,0.20
2019-02-14T05:17:48.200Z,0.13
2019-02-14T05:20:17.616Z,0.08
2019-02-14T05:22:46.763Z,0.01
2019-02-14T05:25:15.958Z,-0.03
2019-02-14T05:27:45.111Z,-0.10
2019-02-14T05:30:14.484Z,-0.10
2019-02-14T05:32:43.684Z,-0.10
2019-02-14T05:35:12.971Z,-0.10
2019-02-14T05:37:42.146Z,-0.13
2019-02-14T05:40:12.174Z,-0.15
2019-02-14T05:42:41.387Z,-0.12
2019-02-14T05:45:11.038Z,0.17
2019-02-14T05:47:40.326Z,0.23
2019-02-14T05:50:09.926Z,0.00
2019-02-14T05:52:39.119Z,-0.09
2019-02-14T05:55:09.458Z,-0.15
2019-02-14T05:57:38.774Z,-0.21
2019-02-14T06:00:09.468Z,-0.29
2019-02-14T06:02:38.872Z,-0.33
2019-02-14T06:05:08.069Z,-0.40
2019-02-14T06:07:37.328Z,-0.41
2019-02-14T06:10:07.516Z,-0.42
2019-02-14T06:12:36.669Z,-0.42
2019-02-14T06:15:06.506Z,-0.45
2019-02-14T06:17:35.713Z,-0.20
2019-02-14T06:20:05.402Z,-0.33
2019-02-14T06:22:34.554Z,-0.33
2019-02-14T06:25:03.899Z,-0.48
2019-02-14T06:27:33.175Z,-0.53
2019-02-14T06:30:02.468Z,-0.51
2019-02-14T06:32:31.679Z,-0.60
2019-02-14T06:35:00.842Z,-0.44
2019-02-14T06:37:30.076Z,-0.27
2019-02-14T06:39:59.310Z,-0.18
2019-02-14T06:42:28.507Z,-0.15
2019-02-14T06:44:57.659Z,-0.13
2019-02-14T06:47:26.882Z,-0.11
2019-02-14T06:49:56.213Z,-0.03
2019-02-14T06:52:25.370Z,0.02
2019-02-14T06:54:54.677Z,-0.02
2019-02-14T06:57:23.917Z,0.44
2019-02-14T06:59:53.087Z,0.59
2019-02-14T07:02:22.265Z,0.63
2019-02-14T07:04:51.460Z,0.67
2019-02-14T07:07:20.638Z,0.64
2019-02-14T07:09:49.842Z,0.78
2019-02-14T07:12:19.014Z,0.93
2019-02-14T07:14:48.192Z,1.05
2019-02-14T07:17:17.344Z,1.10
2019-02-14T07:19:46.651Z,1.15
2019-02-14T07:22:15.820Z,1.24
2019-02-14T07:24:45.062Z,1.28
2019-02-14T07:27:14.320Z,1.30
2019-02-14T07:29:43.526Z,1.37
2019-02-14T07:32:12.820Z,1.41
2019-02-14T07:34:42.024Z,1.45
2019-02-14T07:37:11.280Z,1.52
2019-02-14T07:39:40.456Z,1.57
2019-02-14T07:42:09.692Z,1.62
2019-02-14T07:44:38.876Z,1.65
2019-02-14T07:47:08.055Z,1.68
2019-02-14T07:49:37.209Z,1.73
2019-02-14T07:52:06.675Z,1.78
2019-02-14T07:54:35.875Z,1.84
2019-02-14T07:57:05.183Z,1.90
2019-02-14T07:59:34.436Z,1.95
2019-02-14T08:02:03.735Z,1.98
2019-02-14T08:04:32.961Z,2.01
2019-02-14T08:07:02.549Z,2.05
2019-02-14T08:09:31.850Z,2.07
2019-02-14T08:12:02.376Z,2.14
2019-02-14T08:14:31.732Z,2.19
2019-02-14T08:17:02.400Z,2.22
2019-02-14T08:19:31.762Z,2.28
2019-02-14T08:22:01.646Z,2.33
2019-02-14T08:24:30.808Z,2.34
2019-02-14T08:27:00.126Z,2.36
2019-02-14T08:29:29.415Z,2.40
2019-02-14T08:31:58.722Z,2.47
2019-02-14T08:34:27.902Z,2.49
2019-02-14T08:36:57.319Z,2.53
2019-02-14T08:39:26.459Z,2.58
2019-02-14T08:41:55.703Z,2.62
2019-02-14T08:44:24.860Z,2.71
2019-02-14T08:46:54.028Z,2.77
2019-02-14T08:49:23.233Z,2.80
2019-02-14T08:51:52.446Z,2.87
2019-02-14T08:54:21.703Z,3.09
2019-02-14T08:56:50.956Z,3.23
2019-02-14T08:59:20.289Z,3.33
2019-02-14T09:01:49.506Z,3.40
2019-02-14T09:04:18.680Z,3.51
2019-02-14T09:06:48.063Z,3.62
2019-02-14T09:09:17.433Z,3.71
2019-02-14T09:11:46.679Z,3.86
2019-02-14T09:14:15.858Z,3.94
2019-02-14T09:16:45.062Z,3.96
2019-02-14T09:19:14.389Z,4.07
2019-02-14T09:21:43.547Z,4.18
2019-02-14T09:24:12.736Z,4.31
2019-02-14T09:26:41.911Z,4.49
2019-02-14T09:29:13.739Z,4.58
2019-02-14T09:31:42.145Z,4.67
2019-02-14T09:34:11.323Z,4.79
2019-02-14T09:36:40.548Z,4.91
2019-02-14T09:39:09.700Z,5.02
2019-02-14T09:41:38.967Z,5.15
2019-02-14T09:44:08.164Z,5.26
2019-02-14T09:46:37.348Z,5.33
2019-02-14T09:49:06.766Z,5.48
2019-02-14T09:51:35.901Z,5.57
2019-02-14T09:54:05.040Z,5.62
2019-02-14T09:56:34.290Z,5.69
2019-02-14T09:59:03.485Z,5.80
2019-02-14T10:01:32.665Z,5.91
2019-02-14T10:04:01.942Z,6.01
2019-02-14T10:06:36.725Z,6.16
2019-02-14T10:09:02.264Z,6.21
2019-02-14T10:11:31.425Z,6.36
2019-02-14T10:14:00.596Z,6.43
2019-02-14T10:16:29.810Z,6.50
2019-02-14T10:18:58.961Z,6.64
2019-02-14T10:21:28.114Z,6.75
2019-02-14T10:23:57.328Z,6.84
2019-02-14T10:26:26.479Z,6.93
2019-02-14T10:28:55.619Z,6.90
2019-02-14T10:31:24.829Z,7.07
2019-02-14T10:33:53.984Z,7.17
2019-02-14T10:36:23.175Z,7.21
2019-02-14T10:38:52.512Z,7.27
2019-02-14T10:41:21.677Z,7.37
2019-02-14T10:43:50.857Z,7.53
2019-02-14T10:46:20.093Z,7.66
2019-02-14T10:48:49.291Z,7.72
2019-02-14T10:51:18.445Z,7.70
2019-02-14T10:53:47.755Z,7.89
2019-02-14T10:56:17.157Z,7.95
2019-02-14T10:58:46.409Z,8.19
2019-02-14T11:01:15.819Z,8.33
2019-02-14T11:03:45.119Z,8.47
2019-02-14T11:06:14.380Z,8.28
2019-02-14T11:08:43.543Z,8.37
2019-02-14T11:11:12.846Z,8.53
2019-02-14T11:13:42.182Z,8.80
2019-02-14T11:16:11.380Z,8.95
2019-02-14T11:18:44.310Z,8.99
2019-02-14T11:21:11.557Z,9.01
2019-02-14T11:23:40.727Z,9.21
2019-02-14T11:26:09.880Z,9.34
2019-02-14T11:28:39.257Z,9.06
2019-02-14T11:31:08.423Z,9.28
2019-02-14T11:33:37.786Z,9.37
2019-02-14T11:36:06.939Z,9.53
2019-02-14T11:38:40.634Z,9.63
2019-02-14T11:41:07.702Z,9.66
2019-02-14T11:43:36.870Z,9.75
2019-02-14T11:46:06.147Z,9.73
2019-02-14T11:48:35.383Z,9.72
2019-02-14T11:51:04.541Z,9.76
2019-02-14T11:53:33.686Z,9.84
2019-02-14T11:56:03.073Z,9.96
2019-02-14T11:58:32.216Z,10.07
2019-02-14T12:01:02.329Z,10.10
2019-02-14T12:03:31.539Z,10.25
2019-02-14T12:06:00.723Z,10.23
2019-02-14T12:08:29.895Z,10.32
2019-02-14T12:10:59.060Z,10.46
2019-02-14T12:13:28.203Z,10.56
2019-02-14T12:15:57.501Z,10.58
2019-02-14T12:18:26.731Z,10.61
2019-02-14T12:20:55.909Z,10.50
2019-02-14T12:23:25.149Z,10.77
2019-02-14T12:25:54.404Z,10.62
2019-02-14T12:28:23.558Z,11.14
2019-02-14T12:30:52.738Z,11.67
2019-02-14T12:33:22.271Z,12.22
2019-02-14T12:35:51.496Z,12.67
2019-02-14T12:38:20.791Z,12.51
2019-02-14T12:40:49.988Z,12.99
2019-02-14T12:43:19.548Z,13.77
2019-02-14T12:45:48.711Z,14.04
2019-02-14T12:48:18.329Z,14.18
2019-02-14T12:50:47.523Z,13.88
2019-02-14T12:53:16.683Z,14.04
2019-02-14T12:55:47.688Z,13.18
2019-02-14T12:58:16.976Z,14.56
2019-02-14T13:00:46.158Z,15.02
2019-02-14T13:03:15.366Z,14.51
2019-02-14T13:05:44.634Z,15.16
2019-02-14T13:08:13.896Z,15.30
2019-02-14T13:10:43.143Z,14.75
2019-02-14T13:13:12.421Z,15.44
2019-02-14T13:15:42.084Z,15.38
2019-02-14T13:18:11.233Z,15.31
2019-02-14T13:20:40.392Z,15.89
2019-02-14T13:23:09.609Z,12.93
2019-02-14T13:25:38.787Z,12.33
2019-02-14T13:28:07.968Z,14.73
2019-02-14T13:30:38.446Z,13.49
2019-02-14T13:33:07.779Z,14.09
2019-02-14T13:35:36.970Z,15.87
2019-02-14T13:38:06.375Z,16.31
2019-02-14T13:40:35.532Z,15.84
2019-02-14T13:43:04.718Z,13.44
2019-02-14T13:45:33.914Z,15.58
2019-02-14T13:48:03.101Z,16.50
2019-02-14T13:50:32.243Z,16.63
2019-02-14T13:53:02.591Z,16.60
2019-02-14T13:55:31.791Z,16.88
2019-02-14T13:58:01.022Z,15.32
2019-02-14T14:00:31.786Z,16.03
2019-02-14T14:03:02.466Z,16.64
2019-02-14T14:05:31.667Z,16.63
2019-02-14T14:08:00.845Z,16.72
2019-02-14T14:10:30.047Z,16.79
2019-02-14T14:12:59.418Z,16.63
2019-02-14T14:15:28.596Z,16.26
2019-02-14T14:17:57.888Z,16.52
2019-02-14T14:20:27.144Z,16.64
2019-02-14T14:22:56.482Z,16.94
2019-02-14T14:25:25.919Z,16.99
2019-02-14T14:27:55.213Z,16.72
2019-02-14T14:30:24.835Z,16.31
2019-02-14T14:32:54.035Z,15.80
2019-02-14T14:35:23.232Z,16.16
2019-02-14T14:37:52.443Z,16.07
2019-02-14T14:40:22.342Z,16.06
2019-02-14T14:43:10.439Z,15.98
2019-02-14T14:45:57.987Z,16.17
2019-02-14T14:48:30.539Z,16.41
2019-02-14T14:50:59.956Z,16.53
2019-02-14T14:53:29.355Z,16.79
2019-02-14T14:55:58.605Z,16.72
2019-02-14T14:58:27.896Z,16.52
2019-02-14T15:00:57.102Z,16.86
2019-02-14T15:03:26.278Z,16.13
2019-02-14T15:05:55.469Z,15.78
2019-02-14T15:08:24.701Z,14.97
2019-02-14T15:10:53.873Z,14.15
2019-02-14T15:13:23.148Z,14.06
2019-02-14T15:15:52.456Z,13.75
2019-02-14T15:18:21.737Z,13.08
2019-02-14T15:20:50.979Z,12.96
2019-02-14T15:23:20.289Z,12.93
2019-02-14T15:25:49.448Z,12.90
2019-02-14T15:28:18.710Z,12.88
2019-02-14T15:30:47.924Z,12.79
2019-02-14T15:33:17.076Z,12.65
2019-02-14T15:35:46.259Z,12.58
2019-02-14T15:38:15.463Z,12.53
2019-02-14T15:40:44.822Z,12.40
2019-02-14T15:43:13.989Z,12.29
2019-02-14T15:45:43.441Z,12.06
2019-02-14T15:48:12.679Z,11.98
2019-02-14T15:50:42.382Z,12.00
2019-02-14T15:53:11.638Z,11.92
2019-02-14T15:55:41.771Z,11.73
2019-02-14T15:58:12.806Z,11.56
2019-02-14T16:00:42.045Z,11.14
2019-02-14T16:03:11.347Z,10.80
2019-02-14T16:05:43.321Z,10.60
2019-02-14T16:08:12.475Z,10.51
2019-02-14T16:10:41.812Z,10.39
2019-02-14T16:13:11.017Z,10.24
2019-02-14T16:15:40.231Z,10.19
2019-02-14T16:18:09.531Z,10.02
2019-02-14T16:20:40.397Z,9.91
2019-02-14T16:23:09.777Z,9.85
2019-02-14T16:25:39.060Z,9.72
2019-02-14T16:28:09.889Z,9.73
2019-02-14T16:30:39.234Z,9.67
2019-02-14T16:33:08.526Z,9.47
2019-02-14T16:35:37.780Z,9.28
2019-02-14T16:38:07.203Z,9.16
2019-02-14T16:40:38.565Z,8.81
2019-02-14T16:43:07.377Z,8.55
2019-02-14T16:45:36.935Z,8.42
2019-02-14T16:48:06.195Z,8.24
2019-02-14T16:50:35.405Z,7.94
2019-02-14T16:53:04.630Z,7.88
2019-02-14T16:55:34.047Z,7.75
2019-02-14T16:58:03.449Z,7.59
2019-02-14T17:00:32.663Z,7.49
2019-02-14T17:03:02.180Z,7.32
2019-02-14T17:05:31.339Z,7.19
2019-02-14T17:08:00.550Z,7.16
2019-02-14T17:10:36.596Z,7.48
2019-02-14T17:13:00.828Z,7.32
2019-02-14T17:15:30.079Z,7.12
2019-02-14T17:17:59.242Z,6.97
2019-02-14T17:20:28.399Z,6.67
2019-02-14T17:22:57.581Z,6.49
2019-02-14T17:25:26.798Z,6.34
2019-02-14T17:27:55.987Z,6.21
2019-02-14T17:30:25.153Z,6.10
2019-02-14T17:32:54.409Z,6.12
2019-02-14T17:35:23.633Z,6.06
2019-02-14T17:37:53.141Z,5.96
2019-02-14T17:43:15.755Z,5.77
2019-02-14T17:45:44.944Z,5.61
2019-02-14T17:48:14.193Z,5.45
2019-02-14T17:50:43.499Z,5.35
2019-02-14T17:53:12.745Z,5.23
2019-02-14T17:55:41.919Z,5.22
2019-02-14T17:58:11.205Z,5.22
2019-02-14T18:00:41.904Z,5.18
2019-02-14T18:03:11.229Z,5.02
2019-02-14T18:05:40.497Z,4.81
2019-02-14T18:08:09.734Z,4.69
2019-02-14T18:10:38.910Z,4.55
2019-02-14T18:13:08.230Z,4.50
2019-02-14T18:15:37.448Z,4.41
2019-02-14T18:18:06.622Z,4.37
2019-02-14T18:20:35.863Z,4.26
2019-02-14T18:23:05.318Z,4.12
2019-02-14T18:25:34.493Z,4.07
2019-02-14T18:28:03.717Z,3.95
2019-02-14T18:30:33.061Z,3.85
2019-02-14T18:33:02.612Z,3.78
2019-02-14T18:35:31.781Z,3.72
2019-02-14T18:38:01.095Z,3.77
2019-02-14T18:40:30.281Z,3.68
2019-02-14T18:42:59.478Z,3.55
2019-02-14T18:45:28.654Z,3.51
2019-02-14T18:47:57.932Z,3.51
2019-02-14T18:50:27.158Z,3.44
2019-02-14T18:52:56.377Z,3.41
2019-02-14T18:55:27.679Z,3.55
2019-02-14T18:57:57.162Z,3.41
2019-02-14T19:00:26.476Z,3.23
2019-02-14T19:02:55.750Z,3.08
2019-02-14T19:05:25.081Z,3.03
2019-02-14T19:07:54.292Z,2.96
2019-02-14T19:10:23.530Z,2.88
2019-02-14T19:12:52.937Z,2.80
2019-02-14T19:15:22.183Z,2.77
2019-02-14T19:17:51.414Z,2.72
2019-02-14T19:20:20.905Z,2.60
2019-02-14T19:22:50.201Z,2.54
2019-02-14T19:25:19.373Z,2.55
2019-02-14T19:27:48.607Z,2.56
2019-02-14T19:30:17.945Z,2.48
2019-02-14T19:32:47.519Z,2.40
2019-02-14T19:35:22.775Z,2.41
2019-02-14T19:37:47.719Z,2.33
2019-02-14T19:40:17.132Z,2.23
2019-02-14T19:42:46.493Z,2.16
2019-02-14T19:45:15.948Z,2.18
2019-02-14T19:47:45.182Z,2.09
2019-02-14T19:50:14.569Z,2.02
2019-02-14T19:52:43.863Z,1.98
2019-02-14T19:55:13.264Z,1.94
2019-02-14T19:57:45.003Z,1.88
2019-02-14T20:00:14.652Z,1.87
2019-02-14T20:02:44.238Z,1.81
2019-02-14T20:05:13.462Z,1.78
2019-02-14T20:07:42.863Z,1.74
2019-02-14T20:10:13.499Z,1.71
2019-02-14T20:12:43.062Z,1.68
2019-02-14T20:15:13.799Z,1.66
2019-02-14T20:17:43.089Z,1.57
2019-02-14T20:20:13.442Z,1.59
2019-02-14T20:22:42.699Z,1.61
2019-02-14T20:25:13.454Z,1.50
2019-02-14T20:27:42.679Z,1.43
2019-02-14T20:30:11.903Z,1.56
2019-02-14T20:32:41.333Z,1.46
2019-02-14T20:35:10.628Z,1.46
2019-02-14T20:37:39.926Z,1.54
2019-02-14T20:40:09.521Z,1.42
2019-02-14T20:42:39.012Z,1.33
2019-02-14T20:45:09.191Z,1.20
2019-02-14T20:47:38.832Z,1.11
2019-02-14T20:50:10.595Z,1.02
2019-02-14T20:52:40.048Z,0.97
2019-02-14T20:55:11.269Z,1.03
2019-02-14T20:57:41.106Z,0.97
2019-02-14T21:00:20.325Z,0.93
2019-02-14T21:02:49.617Z,0.86
2019-02-14T21:05:18.875Z,0.83
2019-02-14T21:07:48.132Z,0.92
2019-02-14T21:10:17.772Z,0.86
2019-02-14T21:12:47.446Z,0.89
2019-02-14T21:15:16.693Z,0.76
2019-02-14T21:17:46.070Z,0.72
2019-02-14T21:20:15.567Z,0.65
2019-02-14T21:22:44.772Z,0.67
2019-02-14T21:25:14.181Z,0.55
2019-02-14T21:27:43.913Z,0.56
2019-02-14T21:30:13.920Z,0.55
2019-02-14T21:32:43.222Z,0.56
2019-02-14T21:35:12.751Z,0.50
2019-02-14T21:37:42.275Z,0.53
2019-02-14T21:40:12.540Z,0.46
2019-02-14T21:42:41.726Z,0.48
2019-02-14T21:45:12.199Z,0.45
2019-02-14T21:47:41.524Z,0.40
2019-02-14T21:50:11.237Z,0.36
2019-02-14T21:52:40.632Z,0.44
2019-02-14T21:55:10.977Z,0.34
2019-02-14T21:57:40.255Z,0.36
2019-02-14T22:00:12.770Z,0.33
2019-02-14T22:02:42.705Z,0.27
2019-02-14T22:05:12.134Z,0.26
2019-02-14T22:07:41.466Z,0.37
2019-02-14T22:10:12.941Z,0.31
2019-02-14T22:12:43.504Z,0.22
2019-02-14T22:15:14.743Z,0.17
2019-02-14T22:17:44.180Z,0.28
2019-02-14T22:20:15.014Z,0.25
2019-02-14T22:22:44.349Z,0.31
2019-02-14T22:25:13.682Z,0.33
2019-02-14T22:27:43.053Z,0.29
2019-02-14T22:30:14.559Z,0.22
2019-02-14T22:32:44.000Z,0.02
2019-02-14T22:35:13.353Z,-0.05
2019-02-14T22:37:42.581Z,-0.14
2019-02-14T22:40:12.297Z,-0.11
2019-02-14T22:42:47.237Z,-0.08
2019-02-14T22:45:13.581Z,-0.08
2019-02-14T22:47:43.202Z,-0.09
2019-02-14T22:50:14.045Z,-0.14
2019-02-14T22:52:43.460Z,-0.06
2019-02-14T22:55:12.751Z,-0.12
2019-02-14T22:57:42.041Z,-0.08
2019-02-14T23:00:29.939Z,-0.10
2019-02-14T23:02:59.282Z,-0.21
2019-02-14T23:05:28.490Z,-0.31
2019-02-14T23:07:57.799Z,-0.13
2019-02-14T23:10:27.057Z,-0.24
2019-02-14T23:12:56.412Z,-0.30
2019-02-14T23:15:25.667Z,-0.40
2019-02-14T23:17:55.244Z,-0.44
2019-02-14T23:20:24.726Z,-0.33
2019-02-14T23:22:54.022Z,-0.30
2019-02-14T23:25:23.176Z,-0.29
2019-02-14T23:27:52.448Z,-0.21
2019-02-14T23:30:21.690Z,-0.40
2019-02-14T23:32:50.912Z,-0.49
2019-02-14T23:35:20.139Z,-0.47
2019-02-14T23:37:49.346Z,-0.51
2019-02-14T23:40:20.735Z,-0.51
2019-02-14T23:42:49.919Z,-0.55
2019-02-14T23:45:19.227Z,-0.58
2019-02-14T23:47:48.403Z,-0.66
2019-02-14T23:50:20.434Z,-0.49
2019-02-14T23:52:49.644Z,-0.56
2019-02-14T23:55:18.834Z,-0.64
2019-02-14T23:57:48.022Z,-0.74
